Time;durP1;ratioP1;P1;durP2;ratioP2;P2;SDS_P1;SDS_P2;PMS_P1;PMS_P2;Temp;Humidity;BMP_temperature;BMP_pressure;BME280_temperature;BME280_humidity;BME280_pressure;Samples;Min_cycle;Max_cycle;Signal;HPM_P1;HPM_P2
2024/01/07 00:01:34;;;;;;;125.10;47.72;;;;;;;1.35;100.00;101717.38;5108970;27;20043;-75
2024/01/07 00:03:59;;;;;;;117.35;48.20;;;;;;;1.47;100.00;101717.25;5099132;28;23216;-75
2024/01/07 00:06:25;;;;;;;152.48;56.33;;;;;;;1.46;100.00;101718.13;5102204;27;20045;-75
2024/01/07 00:08:50;;;;;;;153.43;59.25;;;;;;;1.35;100.00;101712.97;5104083;27;20031;-74
2024/01/07 00:11:16;;;;;;;145.20;58.22;;;;;;;1.37;100.00;101726.97;5097088;27;20044;-74
2024/01/07 00:13:41;;;;;;;139.80;53.97;;;;;;;1.40;100.00;101726.06;5104404;27;20032;-74
2024/01/07 00:16:07;;;;;;;148.82;58.53;;;;;;;1.35;100.00;101730.50;5083526;28;20043;-74
2024/01/07 00:18:32;;;;;;;157.48;56.30;;;;;;;1.38;100.00;101731.34;5097408;27;20106;-75
2024/01/07 00:20:58;;;;;;;155.98;58.63;;;;;;;1.51;100.00;101746.09;5071649;28;20036;-74
2024/01/07 00:23:24;;;;;;;144.80;54.53;;;;;;;1.38;100.00;101743.63;5091801;28;20826;-75
2024/01/07 00:25:49;;;;;;;127.97;51.67;;;;;;;1.32;100.00;101747.19;5090876;27;20071;-75
2024/01/07 00:28:15;;;;;;;120.38;47.47;;;;;;;1.27;100.00;101739.34;5072147;28;20153;-75
2024/01/07 00:30:40;;;;;;;134.43;52.13;;;;;;;1.48;100.00;101734.75;5082300;27;20051;-74
2024/01/07 00:33:06;;;;;;;126.07;49.72;;;;;;;1.59;100.00;101742.50;5100213;27;20031;-76
2024/01/07 00:35:31;;;;;;;116.07;47.80;;;;;;;1.39;100.00;101738.34;5078859;28;20066;-74
2024/01/07 00:37:57;;;;;;;127.97;50.33;;;;;;;1.40;100.00;101747.09;5090508;28;20770;-75
2024/01/07 00:40:23;;;;;;;129.70;51.00;;;;;;;1.40;100.00;101750.59;5090341;28;20027;-74
2024/01/07 00:42:48;;;;;;;119.00;46.47;;;;;;;1.49;100.00;101754.88;5075278;27;20310;-74
2024/01/07 00:45:14;;;;;;;119.88;49.75;;;;;;;1.35;100.00;101752.38;5089815;27;20042;-75
2024/01/07 00:47:41;;;;;;;116.50;48.72;;;;;;;1.34;100.00;101755.03;5078361;28;20043;-75
2024/01/07 00:50:06;;;;;;;110.63;47.80;;;;;;;1.12;100.00;101755.25;5084334;27;20031;-75
2024/01/07 00:52:32;;;;;;;112.95;47.97;;;;;;;1.32;100.00;101769.97;5098586;27;20509;-74
2024/01/07 00:54:57;;;;;;;115.63;48.05;;;;;;;1.31;100.00;101762.97;5092946;27;20036;-75
2024/01/07 00:57:23;;;;;;;117.20;48.03;;;;;;;1.38;100.00;101762.88;5094196;27;20043;-74
2024/01/07 00:59:50;;;;;;;123.03;48.83;;;;;;;1.33;100.00;101766.44;5072860;28;20040;-75
2024/01/07 01:02:16;;;;;;;110.57;49.95;;;;;;;1.31;100.00;101766.47;5089737;27;20032;-75
2024/01/07 01:04:41;;;;;;;122.45;51.10;;;;;;;1.53;100.00;101772.34;5096165;27;20561;-74
2024/01/07 01:07:10;;;;;;;120.72;49.40;;;;;;;1.40;100.00;101768.09;5085404;28;20106;-74
2024/01/07 01:09:35;;;;;;;110.85;46.90;;;;;;;1.26;100.00;101774.41;5075926;27;20036;-74
2024/01/07 01:12:01;;;;;;;118.32;49.70;;;;;;;1.38;100.00;101773.38;5093258;27;20321;-75
2024/01/07 01:14:27;;;;;;;118.55;49.17;;;;;;;1.25;100.00;101779.63;5093027;27;20032;-75
2024/01/07 01:16:52;;;;;;;108.47;48.60;;;;;;;1.32;100.00;101781.34;5090826;27;20036;-74
2024/01/07 01:19:18;;;;;;;110.00;48.83;;;;;;;1.34;100.00;101786.56;5086541;27;20519;-75
2024/01/07 01:21:43;;;;;;;104.45;46.30;;;;;;;1.24;100.00;101791.03;5082337;27;20830;-75
2024/01/07 01:24:09;;;;;;;98.88;45.25;;;;;;;1.25;100.00;101798.03;5095068;27;20043;-75
2024/01/07 01:26:34;;;;;;;104.05;43.38;;;;;;;1.25;100.00;101800.66;5096921;27;20040;-75
2024/01/07 01:29:00;;;;;;;96.03;41.15;;;;;;;1.27;100.00;101801.53;5100181;27;20040;-74
2024/01/07 01:31:25;;;;;;;95.13;42.67;;;;;;;1.26;100.00;101805.06;5075845;27;20036;-74
2024/01/07 01:33:51;;;;;;;88.70;40.30;;;;;;;1.25;100.00;101800.66;5081337;27;20996;-75
2024/01/07 01:36:16;;;;;;;85.32;38.92;;;;;;;1.24;100.00;101809.44;5096429;27;20117;-75
2024/01/07 01:38:42;;;;;;;86.28;41.15;;;;;;;1.35;100.00;101807.56;5088021;27;20967;-74
2024/01/07 01:41:07;;;;;;;87.05;39.65;;;;;;;1.22;100.00;101817.34;5095363;27;20047;-75
2024/01/07 01:43:33;;;;;;;84.78;37.92;;;;;;;1.06;100.00;101826.25;5094576;27;20051;-74
2024/01/07 01:45:59;;;;;;;88.30;36.63;;;;;;;1.24;100.00;101826.06;5093644;27;20035;-74
2024/01/07 01:48:26;;;;;;;89.30;38.88;;;;;;;1.20;100.00;101832.22;5099508;27;20035;-74
2024/01/07 01:50:54;;;;;;;90.03;36.95;;;;;;;1.19;100.00;101829.63;5096078;27;20164;-74
2024/01/07 01:53:19;;;;;;;77.13;36.03;;;;;;;1.19;100.00;101827.00;5101783;27;20105;-75
2024/01/07 01:55:45;;;;;;;79.20;35.67;;;;;;;1.21;100.00;101822.59;5097328;27;20136;-75
2024/01/07 01:58:13;;;;;;;68.00;32.05;;;;;;;1.19;100.00;101822.59;5081591;28;20247;-75
2024/01/07 02:00:39;;;;;;;63.70;29.40;;;;;;;1.21;100.00;101809.47;5074289;28;20579;-75
2024/01/07 02:03:04;;;;;;;68.88;32.13;;;;;;;1.29;100.00;101810.25;5088946;28;20028;-74
2024/01/07 02:05:30;;;;;;;65.63;32.08;;;;;;;1.28;100.00;101813.78;5096412;27;20046;-75
2024/01/07 02:07:56;;;;;;;60.42;30.95;;;;;;;1.16;100.00;101820.03;5106177;27;20039;-74
2024/01/07 02:10:22;;;;;;;71.30;32.92;;;;;;;1.19;100.00;101827.00;5075669;27;20691;-74
2024/01/07 02:12:48;;;;;;;70.05;31.58;;;;;;;1.16;100.00;101829.66;5098213;27;20040;-74
2024/01/07 02:15:14;;;;;;;66.65;31.33;;;;;;;1.31;100.00;101820.78;5088553;27;20040;-74
2024/01/07 02:17:40;;;;;;;65.93;32.88;;;;;;;1.31;100.00;101828.66;5087513;27;20035;-74
2024/01/07 02:20:06;;;;;;;73.05;33.30;;;;;;;1.16;100.00;101827.03;5094754;27;20147;-74
2024/01/07 02:22:31;;;;;;;79.10;33.85;;;;;;;1.26;100.00;101836.56;5102645;27;20034;-75
2024/01/07 02:24:57;;;;;;;74.75;35.70;;;;;;;1.39;100.00;101835.56;5078409;27;20596;-74
2024/01/07 02:27:23;;;;;;;81.75;37.30;;;;;;;1.21;100.00;101839.25;5092760;27;20032;-74
2024/01/07 02:29:48;;;;;;;77.88;35.55;;;;;;;1.36;100.00;101837.38;5096489;27;20046;-74
2024/01/07 02:32:14;;;;;;;83.60;36.28;;;;;;;1.33;100.00;101843.50;5093936;27;20472;-74
2024/01/07 02:34:39;;;;;;;81.63;35.42;;;;;;;1.27;100.00;101851.44;5097354;27;20881;-74
2024/01/07 02:37:05;;;;;;;75.43;34.47;;;;;;;1.22;100.00;101848.84;5101891;27;20842;-75
2024/01/07 02:39:31;;;;;;;68.93;32.85;;;;;;;1.21;100.00;101849.75;5095283;27;20043;-75
2024/01/07 02:41:57;;;;;;;66.93;33.45;;;;;;;1.13;100.00;101848.94;5097678;27;20028;-74
2024/01/07 02:44:22;;;;;;;62.60;32.35;;;;;;;1.12;100.00;101852.44;5098168;27;20100;-74
2024/01/07 02:46:48;;;;;;;58.83;30.20;;;;;;;1.19;100.00;101853.25;5081115;27;20435;-75
2024/01/07 02:49:13;;;;;;;55.72;29.25;;;;;;;1.03;100.00;101852.50;5086705;27;20047;-74
2024/01/07 02:51:39;;;;;;;62.70;31.38;;;;;;;0.99;100.00;101856.91;5096193;27;20036;-74
2024/01/07 02:54:05;;;;;;;58.65;30.27;;;;;;;1.11;100.00;101855.09;5102813;27;20040;-75
2024/01/07 02:56:30;;;;;;;61.33;31.58;;;;;;;1.28;100.00;101864.56;5098187;27;20028;-75
2024/01/07 02:58:56;;;;;;;60.30;31.00;;;;;;;1.06;100.00;101857.75;5100423;27;20922;-75
2024/01/07 03:01:23;;;;;;;53.22;28.27;;;;;;;0.95;100.00;101868.31;5106104;27;20028;-75
2024/01/07 03:03:48;;;;;;;55.95;29.05;;;;;;;1.02;100.00;101863.91;5093628;27;20072;-75
2024/01/07 03:06:14;;;;;;;54.35;29.67;;;;;;;0.91;100.00;101879.75;5102249;27;20036;-74
2024/01/07 03:08:39;;;;;;;48.38;26.65;;;;;;;0.83;100.00;101878.91;5097510;27;20822;-74
2024/01/07 03:11:06;;;;;;;61.10;30.77;;;;;;;0.79;100.00;101882.44;5086264;27;20035;-75
2024/01/07 03:13:32;;;;;;;50.42;28.42;;;;;;;0.84;100.00;101883.28;5105294;27;20032;-75
2024/01/07 03:15:58;;;;;;;59.42;29.25;;;;;;;0.80;100.00;101889.41;5092987;28;20032;-75
2024/01/07 03:18:23;;;;;;;59.47;31.35;;;;;;;0.90;100.00;101885.84;5084925;28;20703;-75
2024/01/07 03:20:49;;;;;;;62.35;31.60;;;;;;;0.80;100.00;101894.66;5100217;27;20032;-74
2024/01/07 03:23:15;;;;;;;63.63;31.52;;;;;;;0.85;100.00;101902.53;5111771;27;20047;-75
2024/01/07 03:25:40;;;;;;;60.33;32.03;;;;;;;0.72;100.00;101901.75;5105290;27;20032;-75
2024/01/07 03:28:06;;;;;;;64.03;31.88;;;;;;;0.74;100.00;101905.22;5101296;27;20042;-75
2024/01/07 03:30:32;;;;;;;60.80;32.53;;;;;;;0.77;100.00;101913.94;5094954;27;20036;-74
2024/01/07 03:32:57;;;;;;;55.15;31.83;;;;;;;0.68;100.00;101914.00;5085706;28;20036;-74
2024/01/07 03:35:24;;;;;;;58.35;30.55;;;;;;;0.62;100.00;101913.16;5099725;27;20469;-74
2024/01/07 03:37:50;;;;;;;68.57;33.17;;;;;;;0.72;100.00;101915.72;5101633;27;20032;-73
2024/01/07 03:40:15;;;;;;;63.72;33.40;;;;;;;0.72;100.00;101910.47;5103706;27;20036;-74
2024/01/07 03:42:41;;;;;;;63.10;30.55;;;;;;;0.60;100.00;101920.16;5098371;27;20036;-74
2024/01/07 03:45:06;;;;;;;55.70;30.38;;;;;;;0.75;100.00;101923.59;5105495;27;20028;-74
2024/01/07 03:47:32;;;;;;;57.70;30.95;;;;;;;0.72;100.00;101920.13;5111926;27;20069;-74
2024/01/07 03:49:57;;;;;;;60.80;30.92;;;;;;;0.71;100.00;101914.00;5101118;27;20040;-74
2024/01/07 03:52:23;;;;;;;53.65;29.40;;;;;;;0.59;100.00;101913.16;5106750;27;20036;-75
2024/01/07 03:54:48;;;;;;;58.63;33.08;;;;;;;0.61;100.00;101917.53;5073306;27;20042;-74
2024/01/07 03:57:14;;;;;;;53.58;29.80;;;;;;;0.51;100.00;101929.84;5119669;27;20035;-74
2024/01/07 03:59:39;;;;;;;60.42;33.25;;;;;;;0.63;100.00;101921.03;5104272;27;20035;-74
2024/01/07 04:02:07;;;;;;;53.45;29.70;;;;;;;0.63;100.00;101921.03;5069938;28;20032;-73
2024/01/07 04:04:32;;;;;;;57.25;31.08;;;;;;;0.67;100.00;101919.25;5109359;27;20032;-73
2024/01/07 04:06:58;;;;;;;59.53;31.80;;;;;;;0.57;100.00;101926.31;5105732;27;20058;-76
2024/01/07 04:09:23;;;;;;;61.92;33.53;;;;;;;0.60;100.00;101939.41;5109432;27;20051;-74
2024/01/07 04:11:49;;;;;;;57.65;31.63;;;;;;;0.54;100.00;101931.56;5097204;27;20063;-74
2024/01/07 04:14:15;;;;;;;63.72;33.60;;;;;;;0.57;100.00;101933.31;5105017;27;20067;-74
2024/01/07 04:16:40;;;;;;;61.90;33.10;;;;;;;0.53;100.00;101945.56;5115466;27;20030;-74
2024/01/07 04:19:06;;;;;;;63.03;31.88;;;;;;;0.46;100.00;101941.22;5103931;28;20504;-74
2024/01/07 04:21:31;;;;;;;59.28;31.88;;;;;;;0.43;100.00;101954.34;5108682;27;20382;-74
2024/01/07 04:23:57;;;;;;;66.68;33.08;;;;;;;0.30;100.00;101956.13;5118635;27;20032;-74
2024/01/07 04:26:22;;;;;;;52.83;30.15;;;;;;;0.47;100.00;101963.97;5110925;27;20599;-73
2024/01/07 04:28:48;;;;;;;57.72;31.10;;;;;;;0.39;100.00;101971.84;5118712;27;20081;-74
2024/01/07 04:31:14;;;;;;;57.58;30.83;;;;;;;0.44;100.00;101967.44;5113293;27;20390;-75
2024/01/07 04:33:39;;;;;;;58.08;29.02;;;;;;;0.41;100.00;101970.09;5102700;27;20062;-73
2024/01/07 04:36:05;;;;;;;48.60;26.48;;;;;;;0.38;100.00;101958.75;5085763;28;20062;-74
2024/01/07 04:38:30;;;;;;;51.58;28.52;;;;;;;0.59;100.00;101963.03;5113653;27;20048;-74
2024/01/07 04:40:56;;;;;;;51.70;27.90;;;;;;;0.51;100.00;101968.31;5101488;28;20097;-74
2024/01/07 04:43:21;;;;;;;44.65;25.83;;;;;;;0.45;100.00;101961.34;5102493;28;20381;-74
2024/01/07 04:45:47;;;;;;;47.25;27.30;;;;;;;0.65;100.00;101965.63;5102113;28;20755;-74
2024/01/07 04:48:13;;;;;;;45.65;24.65;;;;;;;0.52;100.00;101963.06;5115196;27;20036;-74
2024/01/07 04:50:44;;;;;;;38.35;23.48;;;;;;;0.56;100.00;101958.69;5113134;27;20048;-75
2024/01/07 04:53:10;;;;;;;39.55;23.00;;;;;;;0.60;100.00;101956.91;5105849;27;20025;-74
2024/01/07 04:55:36;;;;;;;38.08;22.40;;;;;;;0.50;100.00;101962.22;5104242;27;20959;-73
2024/01/07 04:58:03;;;;;;;42.17;23.35;;;;;;;0.56;100.00;101963.06;5112449;27;20039;-73
2024/01/07 05:00:29;;;;;;;40.70;23.20;;;;;;;0.66;100.00;101965.63;5102257;27;20057;-73
2024/01/07 05:02:55;;;;;;;39.53;23.05;;;;;;;0.50;100.00;101959.59;5108594;27;20877;-74
2024/01/07 05:05:20;;;;;;;36.30;21.50;;;;;;;0.53;100.00;101974.44;5102627;27;20138;-73
2024/01/07 05:07:46;;;;;;;40.78;22.50;;;;;;;0.62;100.00;101963.91;5096940;27;20037;-74
2024/01/07 05:10:11;;;;;;;37.67;22.33;;;;;;;0.58;100.00;101966.53;5096122;27;20458;-73
2024/01/07 05:12:37;;;;;;;43.17;23.17;;;;;;;0.55;100.00;101971.78;5071118;28;20040;-73
2024/01/07 05:15:03;;;;;;;43.53;24.27;;;;;;;0.56;100.00;101974.44;5090062;28;20756;-73
2024/01/07 05:17:29;;;;;;;41.08;24.60;;;;;;;0.55;100.00;101972.66;5081094;27;20615;-74
2024/01/07 05:19:54;;;;;;;42.30;23.35;;;;;;;0.55;100.00;101985.78;5101970;27;20615;-73
2024/01/07 05:22:21;;;;;;;37.20;22.23;;;;;;;0.49;100.00;101984.06;5095066;27;20134;-74
2024/01/07 05:24:47;;;;;;;40.33;22.63;;;;;;;0.41;100.00;101988.47;5090594;27;20058;-74
2024/01/07 05:27:12;;;;;;;38.47;23.17;;;;;;;0.48;100.00;101997.19;5098569;27;20679;-73
2024/01/07 05:29:38;;;;;;;41.90;24.30;;;;;;;0.57;100.00;102001.53;5066291;27;20096;-74
2024/01/07 05:32:04;;;;;;;37.45;22.27;;;;;;;0.56;100.00;101997.19;5094582;27;20776;-74
2024/01/07 05:34:29;;;;;;;38.22;22.80;;;;;;;0.62;100.00;102002.41;5097482;27;20085;-73
2024/01/07 05:36:55;;;;;;;38.95;22.45;;;;;;;0.50;100.00;102008.53;5101217;27;20812;-74
2024/01/07 05:39:20;;;;;;;37.80;23.42;;;;;;;0.51;100.00;102011.19;5100266;27;20044;-74
2024/01/07 05:41:46;;;;;;;38.25;22.98;;;;;;;0.55;100.00;102012.03;5086885;27;20117;-74
2024/01/07 05:44:12;;;;;;;40.35;22.75;;;;;;;0.36;100.00;102026.09;5101223;27;20035;-74
2024/01/07 05:46:40;;;;;;;37.80;22.15;;;;;;;0.40;100.00;102041.81;5096907;27;20040;-74
2024/01/07 05:49:06;;;;;;;37.70;22.05;;;;;;;0.47;100.00;102019.94;5096949;27;20032;-75
2024/01/07 05:51:32;;;;;;;38.53;22.30;;;;;;;0.18;100.00;102027.00;5099187;27;20872;-74
2024/01/07 05:53:57;;;;;;;35.35;21.27;;;;;;;0.31;100.00;102041.84;5098259;27;20074;-75
2024/01/07 05:56:23;;;;;;;38.53;22.08;;;;;;;0.50;100.00;102026.91;5091938;27;20075;-75
2024/01/07 05:58:49;;;;;;;42.00;22.40;;;;;;;0.44;100.00;102026.94;5093952;27;20039;-74
2024/01/07 06:01:19;;;;;;;31.77;20.73;;;;;;;0.38;100.00;102033.06;5089138;28;20047;-74
2024/01/07 06:03:46;;;;;;;35.83;21.17;;;;;;;0.51;100.00;102044.41;5096419;27;20040;-74
2024/01/07 06:06:12;;;;;;;36.92;20.77;;;;;;;0.40;100.00;102039.22;5092621;27;20036;-75
2024/01/07 06:08:38;;;;;;;37.78;20.77;;;;;;;0.23;100.00;102057.56;5071410;28;20051;-75
2024/01/07 06:11:03;;;;;;;36.25;20.40;;;;;;;0.44;100.00;102054.03;5096220;27;20183;-75
2024/01/07 06:13:29;;;;;;;39.38;21.02;;;;;;;0.25;100.00;102050.59;5091292;27;20040;-75
2024/01/07 06:15:55;;;;;;;38.08;21.33;;;;;;;0.36;100.00;102052.31;5101597;27;20097;-75
2024/01/07 06:18:21;;;;;;;38.58;21.30;;;;;;;0.36;100.00;102057.56;5081987;27;20112;-74
2024/01/07 06:20:46;;;;;;;31.25;19.52;;;;;;;0.14;100.00;102061.94;5100536;27;20055;-74
2024/01/07 06:23:12;;;;;;;43.40;21.75;;;;;;;0.28;100.00;102067.19;5082964;27;20059;-75
2024/01/07 06:25:39;;;;;;;37.65;20.90;;;;;;;0.22;100.00;102089.06;5089583;27;20915;-75
2024/01/07 06:28:04;;;;;;;34.92;22.10;;;;;;;0.16;100.00;102074.19;5097826;27;20152;-74
2024/01/07 06:30:30;;;;;;;40.90;22.10;;;;;;;0.14;100.00;102089.03;5102115;27;20032;-74
2024/01/07 06:32:55;;;;;;;43.35;20.65;;;;;;;0.16;100.00;102092.56;5097159;27;20025;-75
2024/01/07 06:35:21;;;;;;;36.97;20.98;;;;;;;0.25;100.00;102095.19;5091294;28;20040;-75
2024/01/07 06:37:47;;;;;;;37.90;20.42;;;;;;;0.36;100.00;102094.31;5093286;27;20033;-75
2024/01/07 06:40:13;;;;;;;34.67;20.25;;;;;;;0.23;100.00;102096.91;5099646;27;20040;-75
2024/01/07 06:42:38;;;;;;;39.13;22.08;;;;;;;0.35;100.00;102103.03;5096922;27;20048;-74
2024/01/07 06:45:04;;;;;;;36.70;20.45;;;;;;;0.29;100.00;102108.28;5098231;27;20040;-75
2024/01/07 06:47:30;;;;;;;34.75;20.15;;;;;;;0.29;100.00;102113.53;5075111;28;20032;-75
2024/01/07 06:49:56;;;;;;;34.75;20.05;;;;;;;0.27;100.00;102110.91;5097671;27;20126;-74
2024/01/07 06:52:21;;;;;;;34.65;20.40;;;;;;;0.37;100.00;102115.28;5085208;27;20039;-75
2024/01/07 06:54:46;;;;;;;28.25;18.83;;;;;;;0.13;100.00;102110.91;5105271;27;20043;-75
2024/01/07 06:57:12;;;;;;;31.98;20.90;;;;;;;0.23;100.00;102122.28;5096097;27;20040;-75
2024/01/07 06:59:37;;;;;;;32.38;18.73;;;;;;;0.06;100.00;102130.16;5094625;27;20077;-74
2024/01/07 07:02:04;;;;;;;29.70;18.02;;;;;;;0.16;100.00;102121.41;5095767;27;20040;-74
2024/01/07 07:04:29;;;;;;;29.73;17.98;;;;;;;0.20;100.00;102131.03;5100215;27;20310;-73
2024/01/07 07:06:57;;;;;;;32.55;18.27;;;;;;;0.15;100.00;102124.00;5095552;27;20058;-74
2024/01/07 07:09:22;;;;;;;30.50;18.50;;;;;;;0.12;100.00;102126.66;5089972;27;20039;-74
2024/01/07 07:11:48;;;;;;;33.88;19.77;;;;;;;0.23;100.00;102133.63;5081377;27;20061;-74
2024/01/07 07:14:13;;;;;;;32.55;19.75;;;;;;;0.18;100.00;102142.38;5102650;27;20032;-75
2024/01/07 07:16:39;;;;;;;31.45;17.50;;;;;;;0.12;100.00;102143.25;5084332;27;20998;-75
2024/01/07 07:19:04;;;;;;;29.08;18.73;;;;;;;0.20;100.00;102148.50;5076914;28;20040;-76
2024/01/07 07:21:30;;;;;;;27.98;17.67;;;;;;;0.16;100.00;102165.13;5088678;27;20031;-76
2024/01/07 07:23:55;;;;;;;32.08;18.63;;;;;;;0.10;100.00;102155.50;5096804;27;20032;-75
2024/01/07 07:26:21;;;;;;;24.52;17.23;;;;;;;0.05;100.00;102167.75;5102912;27;20023;-76
2024/01/07 07:28:46;;;;;;;31.02;18.23;;;;;;;0.07;100.00;102170.34;5097791;27;20253;-74
2024/01/07 07:31:12;;;;;;;32.00;19.23;;;;;;;0.14;100.00;102180.84;5100177;27;20040;-75
2024/01/07 07:33:40;;;;;;;30.95;18.58;;;;;;;0.11;100.00;102188.72;5098927;27;20032;-73
2024/01/07 07:36:06;;;;;;;30.52;18.40;;;;;;;0.11;100.00;102185.22;5092664;27;20120;-75
2024/01/07 07:38:32;;;;;;;27.27;18.05;;;;;;;0.12;100.00;102195.72;5110271;27;20051;-74
2024/01/07 07:40:58;;;;;;;34.15;19.58;;;;;;;0.13;100.00;102202.69;5103130;27;20048;-75
2024/01/07 07:43:26;;;;;;;28.60;18.40;;;;;;;-0.01;100.00;102201.78;5100845;27;20044;-75
2024/01/07 07:45:51;;;;;;;27.85;18.48;;;;;;;-0.01;100.00;102204.41;5097396;27;20797;-75
2024/01/07 07:48:20;;;;;;;30.67;18.60;;;;;;;-0.01;100.00;102214.91;5099083;27;20322;-75
2024/01/07 07:50:46;;;;;;;31.50;18.98;;;;;;;-0.11;100.00;102215.75;5100653;27;20038;-75
2024/01/07 07:53:11;;;;;;;32.47;18.52;;;;;;;-0.09;100.00;102216.66;5099721;27;20137;-76
2024/01/07 07:55:37;;;;;;;27.25;17.77;;;;;;;-0.11;100.00;102231.47;5099399;27;20044;-75
2024/01/07 07:58:02;;;;;;;28.90;18.45;;;;;;;-0.10;100.00;102230.59;5102718;27;20059;-75
2024/01/07 08:00:28;;;;;;;26.55;17.60;;;;;;;-0.21;100.00;102233.19;5109650;27;20066;-75
2024/01/07 08:02:53;;;;;;;30.38;18.25;;;;;;;-0.16;100.00;102230.59;5088292;27;20102;-75
2024/01/07 08:05:19;;;;;;;32.33;19.08;;;;;;;-0.13;100.00;102225.38;5087415;27;20040;-75
2024/01/07 08:07:44;;;;;;;31.58;18.25;;;;;;;-0.14;100.00;102244.59;5109313;27;20039;-75
2024/01/07 08:10:10;;;;;;;28.27;17.55;;;;;;;-0.13;100.00;102241.97;5069143;27;20031;-76
2024/01/07 08:12:35;;;;;;;27.13;17.85;;;;;;;-0.31;100.00;102250.63;5101205;27;20055;-75
2024/01/07 08:15:02;;;;;;;31.98;19.88;;;;;;;-0.28;100.00;102260.25;5105971;27;20032;-75
2024/01/07 08:17:28;;;;;;;30.67;18.55;;;;;;;-0.30;100.00;102260.25;5094344;28;20101;-74
2024/01/07 08:19:54;;;;;;;28.77;18.52;;;;;;;-0.23;100.00;102263.78;5094109;28;20705;-75
2024/01/07 08:22:19;;;;;;;30.35;18.13;;;;;;;-0.30;100.00;102282.97;5111043;27;20032;-75
2024/01/07 08:24:45;;;;;;;29.00;17.60;;;;;;;-0.37;100.00;102271.56;5090670;28;20089;-74
2024/01/07 08:27:10;;;;;;;27.75;18.15;;;;;;;-0.21;100.00;102271.63;5111918;28;20036;-76
2024/01/07 08:29:36;;;;;;;27.42;18.52;;;;;;;-0.22;100.00;102276.00;5114904;27;20036;-74
2024/01/07 08:32:01;;;;;;;27.58;18.70;;;;;;;-0.34;100.00;102283.81;5093640;27;20557;-74
2024/01/07 08:34:27;;;;;;;27.08;17.25;;;;;;;-0.28;100.00;102292.59;5126673;27;20042;-74
2024/01/07 08:36:53;;;;;;;24.67;16.27;;;;;;;-0.24;100.00;102290.00;5123487;27;20693;-75
2024/01/07 08:39:19;;;;;;;28.20;17.60;;;;;;;-0.31;100.00;102291.69;5094031;28;21249;-75
2024/01/07 08:41:45;;;;;;;29.10;17.50;;;;;;;-0.32;100.00;102296.06;5115142;27;20040;-75
2024/01/07 08:44:11;;;;;;;27.98;17.20;;;;;;;-0.20;100.00;102290.00;5115297;27;20035;-74
2024/01/07 08:46:36;;;;;;;25.45;16.20;;;;;;;-0.05;100.00;102283.91;5109230;27;20032;-75
2024/01/07 08:49:02;;;;;;;23.85;15.57;;;;;;;-0.26;100.00;102296.06;5103269;28;20035;-74
2024/01/07 08:51:29;;;;;;;24.98;16.48;;;;;;;-0.12;100.00;102297.88;5075858;28;20039;-75
2024/01/07 08:53:55;;;;;;;22.92;16.40;;;;;;;-0.24;100.00;102309.22;5085576;27;20036;-75
2024/01/07 08:56:21;;;;;;;26.67;16.48;;;;;;;-0.17;100.00;102299.63;5103985;27;20024;-75
2024/01/07 08:58:46;;;;;;;26.20;16.50;;;;;;;-0.13;100.00;102301.38;5100460;27;20875;-74
2024/01/07 09:01:14;;;;;;;29.35;16.63;;;;;;;-0.05;100.00;102302.28;5077497;27;20048;-75
2024/01/07 09:03:40;;;;;;;26.05;17.42;;;;;;;-0.11;100.00;102305.75;5078655;27;20868;-76
2024/01/07 09:06:05;;;;;;;30.17;17.90;;;;;;;-0.21;100.00;102310.94;5060984;28;20125;-75
2024/01/07 09:08:31;;;;;;;27.25;17.23;;;;;;;-0.19;100.00;102315.34;5090065;27;20033;-75
2024/01/07 09:10:57;;;;;;;25.42;15.52;;;;;;;-0.23;100.00;102329.31;5089525;27;20036;-74
2024/01/07 09:13:22;;;;;;;28.63;16.23;;;;;;;-0.17;100.00;102318.84;5074256;28;20043;-75
2024/01/07 09:15:48;;;;;;;24.42;15.30;;;;;;;-0.23;100.00;102321.44;5082244;27;20534;-74
2024/01/07 09:18:13;;;;;;;21.95;14.38;;;;;;;-0.33;100.00;102332.75;5097622;27;20756;-75
2024/01/07 09:20:39;;;;;;;26.27;14.73;;;;;;;-0.27;100.00;102317.03;5083918;28;20044;-75
2024/01/07 09:23:04;;;;;;;22.67;14.80;;;;;;;-0.13;100.00;102317.13;5084359;27;20036;-75
2024/01/07 09:25:29;;;;;;;25.13;15.48;;;;;;;-0.01;100.00;102323.28;5098871;27;20031;-75
2024/01/07 09:27:55;;;;;;;23.27;15.38;;;;;;;-0.04;100.00;102330.28;5096316;27;20381;-75
2024/01/07 09:30:20;;;;;;;25.00;15.43;;;;;;;-0.05;100.00;102331.13;5092579;27;20032;-75
2024/01/07 09:32:46;;;;;;;24.55;14.35;;;;;;;-0.06;100.00;102337.22;5084910;27;20037;-74
2024/01/07 09:35:11;;;;;;;25.50;16.15;;;;;;;0.12;100.00;102339.06;5089596;27;20929;-74
2024/01/07 09:37:37;;;;;;;23.33;14.27;;;;;;;-0.06;100.00;102335.47;5095120;27;20044;-74
2024/01/07 09:40:05;;;;;;;20.67;13.43;;;;;;;0.12;100.00;102344.31;5093562;27;20048;-74
2024/01/07 09:42:30;;;;;;;22.90;14.68;;;;;;;0.04;100.00;102344.28;5089626;27;20048;-75
2024/01/07 09:44:56;;;;;;;24.40;14.93;;;;;;;0.14;100.00;102348.69;5095972;27;20136;-75
2024/01/07 09:47:23;;;;;;;24.75;14.98;;;;;;;0.21;100.00;102354.84;5097400;27;20039;-75
2024/01/07 09:49:49;;;;;;;23.45;14.35;;;;;;;-0.04;100.00;102357.38;5090678;27;20228;-75
2024/01/07 09:52:14;;;;;;;27.15;13.73;;;;;;;0.10;100.00;102365.31;5088897;27;20128;-74
2024/01/07 09:54:40;;;;;;;21.42;12.93;;;;;;;0.02;100.00;102374.88;5096709;27;20043;-75
2024/01/07 09:57:07;;;;;;;21.63;13.77;;;;;;;0.03;100.00;102368.75;5090628;27;20032;-74
2024/01/07 09:59:35;;;;;;;20.80;13.13;;;;;;;0.12;100.00;102399.38;5090862;27;20063;-75
2024/01/07 10:02:00;;;;;;;19.17;12.23;;;;;;;0.10;100.00;102374.88;5083948;27;20147;-75
2024/01/07 10:04:28;;;;;;;22.05;12.77;;;;;;;0.22;100.00;102386.31;5091505;27;20136;-75
2024/01/07 10:06:54;;;;;;;19.05;13.60;;;;;;;0.33;100.00;102382.88;5093873;27;20032;-75
2024/01/07 10:09:23;;;;;;;23.65;13.48;;;;;;;0.35;100.00;102379.38;5088483;27;20044;-76
2024/01/07 10:11:52;;;;;;;21.88;13.25;;;;;;;0.51;100.00;102393.44;5095132;27;20097;-76
2024/01/07 10:14:19;;;;;;;15.93;11.13;;;;;;;0.58;100.00;102386.44;5097571;27;20039;-75
2024/01/07 10:16:45;;;;;;;16.73;10.80;;;;;;;0.65;100.00;102377.69;5093718;27;20036;-75
2024/01/07 10:19:11;;;;;;;17.92;10.65;;;;;;;0.41;100.00;102383.78;5095654;27;21051;-75
2024/01/07 10:21:36;;;;;;;16.40;10.45;;;;;;;0.47;100.00;102376.78;5091484;27;20040;-74
2024/01/07 10:24:12;;;;;;;17.50;11.50;;;;;;;0.58;100.00;102387.31;5074841;28;20028;-74
2024/01/07 10:26:39;;;;;;;14.35;10.07;;;;;;;0.57;100.00;102376.81;5073658;28;20040;-74
2024/01/07 10:29:05;;;;;;;13.52;9.57;;;;;;;0.55;100.00;102382.03;5092342;27;20032;-76
2024/01/07 10:31:32;;;;;;;16.13;10.43;;;;;;;0.55;100.00;102373.31;5071656;27;20020;-74
2024/01/07 10:33:57;;;;;;;13.65;9.10;;;;;;;0.47;100.00;102379.41;5077089;27;20031;-75
2024/01/07 10:36:24;;;;;;;16.17;9.43;;;;;;;0.42;100.00;102381.16;5093898;27;20055;-75
2024/01/07 10:38:50;;;;;;;16.27;9.13;;;;;;;0.39;100.00;102388.13;5098010;27;20044;-74
2024/01/07 10:41:18;;;;;;;15.52;9.07;;;;;;;0.33;100.00;102386.38;5086538;27;20041;-74
2024/01/07 10:43:47;;;;;;;13.88;9.80;;;;;;;0.57;100.00;102388.19;5097743;27;20036;-74
2024/01/07 10:46:14;;;;;;;15.18;8.93;;;;;;;0.54;100.00;102395.19;5061964;28;20036;-73
2024/01/07 10:48:47;;;;;;;12.98;7.95;;;;;;;0.48;100.00;102394.28;5089329;27;20032;-74
2024/01/07 10:51:14;;;;;;;13.63;8.75;;;;;;;0.64;100.00;102389.06;5075477;27;20031;-74
2024/01/07 10:53:43;;;;;;;11.52;7.88;;;;;;;0.46;100.00;102403.91;5077372;27;20040;-74
2024/01/07 10:56:12;;;;;;;12.43;8.35;;;;;;;0.62;100.00;102407.47;5058032;28;20040;-74
2024/01/07 10:58:39;;;;;;;13.45;8.98;;;;;;;0.47;100.00;102396.91;5092477;27;21060;-74
2024/01/07 11:01:06;;;;;;;11.55;7.68;;;;;;;0.35;100.00;102405.63;5072721;27;20035;-74